createdAt,value
2022-09-15T00:00:38.050Z,15.12
2022-09-15T00:01:27.180Z,15.07
2022-09-15T00:02:14.072Z,15.06
2022-09-15T00:03:00.715Z,15.06
2022-09-15T00:03:47.842Z,14.94
2022-09-15T00:04:34.216Z,14.97
2022-09-15T00:05:21.227Z,15.03
2022-09-15T00:06:09.707Z,15.07
2022-09-15T00:06:56.156Z,14.98
2022-09-15T00:07:42.580Z,15.02
2022-09-15T00:08:29.172Z,15.02
2022-09-15T00:09:15.655Z,15.00
2022-09-15T00:10:03.698Z,14.94
2022-09-15T00:10:58.446Z,14.89
2022-09-15T00:11:45.907Z,14.99
2022-09-15T00:12:33.615Z,14.97
2022-09-15T00:13:21.630Z,14.94
2022-09-15T00:14:09.040Z,14.97
2022-09-15T00:14:56.657Z,14.90
2022-09-15T00:15:43.389Z,15.03
2022-09-15T00:16:31.674Z,14.90
2022-09-15T00:17:18.303Z,14.92
2022-09-15T00:18:05.060Z,15.00
2022-09-15T00:18:52.050Z,14.98
2022-09-15T00:19:38.698Z,14.97
2022-09-15T00:20:25.245Z,15.03
2022-09-15T00:21:15.125Z,15.05
2022-09-15T00:22:01.679Z,14.88
2022-09-15T00:22:49.019Z,14.86
2022-09-15T00:23:36.304Z,14.87
2022-09-15T00:24:22.718Z,14.88
2022-09-15T00:25:09.379Z,14.89
2022-09-15T00:25:55.804Z,14.89
2022-09-15T00:26:42.295Z,14.86
2022-09-15T00:27:32.460Z,14.79
2022-09-15T00:28:21.214Z,14.77
2022-09-15T00:29:09.011Z,14.71
2022-09-15T00:29:55.425Z,14.81
2022-09-15T00:30:47.316Z,14.78
2022-09-15T00:31:33.925Z,14.75
2022-09-15T00:32:20.832Z,14.70
2022-09-15T00:33:07.493Z,14.73
2022-09-15T00:33:58.107Z,14.76
2022-09-15T00:34:44.591Z,14.81
2022-09-15T00:35:30.994Z,14.77
2022-09-15T00:36:19.151Z,14.81
2022-09-15T00:37:06.212Z,14.81
2022-09-15T00:37:52.628Z,14.72
2022-09-15T00:38:39.316Z,14.74
2022-09-15T00:39:25.854Z,14.61
2022-09-15T00:40:12.436Z,14.66
2022-09-15T00:41:00.890Z,14.67
2022-09-15T00:41:47.335Z,14.66
2022-09-15T00:42:33.804Z,14.63
2022-09-15T00:43:40.805Z,14.55
2022-09-15T00:44:36.058Z,14.63
2022-09-15T00:45:22.515Z,14.57
2022-09-15T00:46:09.687Z,14.54
2022-09-15T00:47:17.783Z,14.48
2022-09-15T00:48:08.311Z,14.53
2022-09-15T00:49:01.660Z,14.44
2022-09-15T00:49:58.397Z,14.39
2022-09-15T00:50:53.219Z,14.40
2022-09-15T00:51:48.195Z,14.34
2022-09-15T00:52:43.655Z,14.33
2022-09-15T00:53:32.806Z,14.27
2022-09-15T00:54:26.749Z,14.28
2022-09-15T00:55:26.506Z,14.29
2022-09-15T00:56:16.068Z,14.26
2022-09-15T00:57:08.395Z,14.25
2022-09-15T00:58:01.449Z,14.28
2022-09-15T00:58:58.749Z,14.22
2022-09-15T00:59:48.480Z,14.23
2022-09-15T01:00:35.374Z,14.17
2022-09-15T01:01:26.561Z,14.18
2022-09-15T01:02:21.796Z,14.16
2022-09-15T01:03:08.338Z,14.15
2022-09-15T01:03:55.856Z,14.12
2022-09-15T01:04:42.795Z,14.10
2022-09-15T01:05:42.769Z,14.09
2022-09-15T01:06:40.751Z,14.09
2022-09-15T01:07:52.908Z,14.06
2022-09-15T01:08:47.183Z,14.04
2022-09-15T01:09:51.894Z,14.07
2022-09-15T01:10:41.062Z,14.03
2022-09-15T01:11:28.008Z,14.04
2022-09-15T01:12:15.570Z,14.03
2022-09-15T01:13:07.092Z,14.06
2022-09-15T01:13:53.530Z,14.06
2022-09-15T01:14:40.013Z,14.06
2022-09-15T01:15:58.267Z,14.12
2022-09-15T01:17:12.013Z,14.07
2022-09-15T01:18:20.625Z,14.11
2022-09-15T01:19:25.145Z,14.07
2022-09-15T01:20:48.969Z,14.07
2022-09-15T01:21:45.137Z,13.96
2022-09-15T01:23:08.776Z,13.95
2022-09-15T01:24:22.914Z,14.00
2022-09-15T01:25:54.347Z,14.01
2022-09-15T01:27:30.553Z,14.08
2022-09-15T01:28:41.850Z,14.04
2022-09-15T01:29:51.286Z,14.07
2022-09-15T01:30:42.342Z,14.03
2022-09-15T01:32:09.762Z,14.04
2022-09-15T01:33:27.042Z,13.98
2022-09-15T01:34:20.403Z,13.97
2022-09-15T01:35:22.341Z,13.99
2022-09-15T01:36:21.766Z,13.98
2022-09-15T01:37:17.244Z,13.97
2022-09-15T01:38:15.276Z,13.98
2022-09-15T01:39:15.814Z,13.94
2022-09-15T01:40:03.696Z,13.90
2022-09-15T01:40:59.478Z,13.90
2022-09-15T01:41:52.839Z,13.88
2022-09-15T01:42:42.979Z,13.89
2022-09-15T01:43:33.643Z,13.90
2022-09-15T01:44:29.058Z,13.89
2022-09-15T01:45:24.657Z,13.92
2022-09-15T01:46:16.675Z,13.94
2022-09-15T01:47:09.208Z,14.01
2022-09-15T01:47:59.162Z,14.16
2022-09-15T01:48:49.337Z,14.11
2022-09-15T01:49:54.627Z,14.13
2022-09-15T01:50:47.411Z,14.10
2022-09-15T01:51:36.790Z,14.08
2022-09-15T01:52:24.766Z,14.08
2022-09-15T01:53:21.061Z,14.05
2022-09-15T01:54:09.189Z,14.08
2022-09-15T01:55:01.963Z,14.08
2022-09-15T01:55:55.712Z,14.11
2022-09-15T01:56:42.196Z,14.07
2022-09-15T01:57:33.182Z,14.08
2022-09-15T01:58:21.102Z,14.09
2022-09-15T01:59:09.403Z,14.06
2022-09-15T01:59:56.656Z,14.07
2022-09-15T02:00:53.260Z,14.04
2022-09-15T02:02:07.257Z,14.07
2022-09-15T02:03:04.111Z,14.07
2022-09-15T02:04:04.868Z,14.06
2022-09-15T02:05:03.374Z,14.09
2022-09-15T02:06:01.879Z,14.08
2022-09-15T02:07:07.276Z,14.14
2022-09-15T02:08:06.926Z,14.15
2022-09-15T02:09:02.515Z,14.21
2022-09-15T02:10:09.213Z,14.24
2022-09-15T02:11:26.511Z,14.26
2022-09-15T02:12:45.154Z,14.34
2022-09-15T02:13:39.066Z,14.27
2022-09-15T02:14:52.091Z,14.32
2022-09-15T02:15:48.335Z,14.25
2022-09-15T02:16:36.477Z,14.34
2022-09-15T02:17:31.166Z,14.34
2022-09-15T02:18:34.594Z,14.36
2022-09-15T02:19:32.940Z,14.33
2022-09-15T02:20:33.189Z,14.34
2022-09-15T02:21:29.637Z,14.35
2022-09-15T02:22:24.095Z,14.31
2022-09-15T02:23:27.533Z,14.36
2022-09-15T02:24:25.735Z,14.38
2022-09-15T02:25:18.675Z,14.35
2022-09-15T02:26:11.582Z,14.33
2022-09-15T02:27:01.023Z,14.30
2022-09-15T02:27:52.708Z,14.33
2022-09-15T02:28:42.103Z,14.30
2022-09-15T02:29:34.997Z,14.32
2022-09-15T02:30:22.301Z,14.29
2022-09-15T02:31:14.921Z,14.31
2022-09-15T02:32:07.388Z,14.37
2022-09-15T02:33:09.030Z,14.39
2022-09-15T02:34:03.570Z,14.42
2022-09-15T02:34:54.449Z,14.42
2022-09-15T02:35:42.988Z,14.45
2022-09-15T02:36:31.203Z,14.42
2022-09-15T02:37:22.900Z,14.39
2022-09-15T02:38:11.451Z,14.33
2022-09-15T02:39:05.627Z,14.31
2022-09-15T02:39:57.949Z,14.28
2022-09-15T02:40:44.832Z,14.26
2022-09-15T02:41:35.237Z,14.20
2022-09-15T02:42:31.124Z,14.12
2022-09-15T02:43:18.694Z,14.15
2022-09-15T02:44:05.829Z,14.17
2022-09-15T02:44:52.609Z,14.12
2022-09-15T02:45:39.327Z,14.11
2022-09-15T02:46:25.875Z,14.10
2022-09-15T02:47:13.357Z,14.12
2022-09-15T02:48:00.057Z,14.04
2022-09-15T02:48:46.607Z,14.06
2022-09-15T02:49:33.060Z,14.01
2022-09-15T02:50:20.507Z,14.07
2022-09-15T02:51:07.001Z,14.09
2022-09-15T02:51:53.446Z,14.11
2022-09-15T02:52:39.881Z,14.15
2022-09-15T02:53:26.285Z,14.13
2022-09-15T02:54:12.675Z,14.12
2022-09-15T02:55:00.707Z,14.12
2022-09-15T02:55:47.085Z,14.11
2022-09-15T02:56:33.865Z,14.07
2022-09-15T02:57:20.517Z,14.05
2022-09-15T02:58:06.945Z,14.06
2022-09-15T02:58:53.373Z,14.02
2022-09-15T03:00:03.451Z,13.96
2022-09-15T03:00:55.597Z,13.95
2022-09-15T03:01:42.074Z,13.92
2022-09-15T03:02:28.835Z,13.91
2022-09-15T03:03:15.375Z,13.89
2022-09-15T03:04:03.480Z,13.85
2022-09-15T03:04:50.941Z,13.83
2022-09-15T03:05:37.345Z,13.76
2022-09-15T03:06:24.206Z,13.76
2022-09-15T03:07:10.612Z,13.72
2022-09-15T03:07:57.269Z,13.69
2022-09-15T03:08:58.241Z,13.69
2022-09-15T03:09:45.061Z,13.63
2022-09-15T03:10:33.397Z,13.64
2022-09-15T03:11:22.394Z,13.62
2022-09-15T03:12:09.228Z,13.57
2022-09-15T03:12:56.153Z,13.60
2022-09-15T03:13:42.680Z,13.58
2022-09-15T03:14:29.611Z,13.58
2022-09-15T03:15:19.749Z,13.58
2022-09-15T03:16:12.114Z,13.63
2022-09-15T03:16:59.494Z,13.61
2022-09-15T03:17:47.680Z,13.55
2022-09-15T03:18:34.557Z,13.51
2022-09-15T03:19:20.972Z,13.47
2022-09-15T03:20:09.683Z,13.41
2022-09-15T03:20:57.138Z,13.40
2022-09-15T03:21:43.860Z,13.38
2022-09-15T03:22:31.079Z,13.35
2022-09-15T03:23:17.447Z,13.27
2022-09-15T03:24:04.237Z,13.27
2022-09-15T03:24:51.761Z,13.27
2022-09-15T03:25:38.442Z,13.22
2022-09-15T03:26:25.410Z,13.21
2022-09-15T03:27:11.956Z,13.19
2022-09-15T03:27:58.357Z,13.21
2022-09-15T03:28:44.948Z,13.20
2022-09-15T03:29:31.555Z,13.20
2022-09-15T03:30:18.688Z,13.18
2022-09-15T03:31:08.465Z,13.17
2022-09-15T03:31:54.970Z,13.18
2022-09-15T03:32:41.470Z,13.13
2022-09-15T03:33:29.702Z,13.13
2022-09-15T03:34:16.463Z,13.13
2022-09-15T03:35:04.327Z,13.06
2022-09-15T03:35:52.440Z,13.08
2022-09-15T03:36:38.962Z,13.06
2022-09-15T03:37:25.858Z,13.04
2022-09-15T03:38:14.996Z,13.03
2022-09-15T03:39:01.914Z,12.98
2022-09-15T03:39:49.059Z,12.97
2022-09-15T03:40:36.061Z,12.94
2022-09-15T03:41:22.501Z,12.94
2022-09-15T03:42:09.077Z,12.92
2022-09-15T03:42:55.516Z,12.91
2022-09-15T03:43:41.988Z,12.89
2022-09-15T03:44:28.732Z,12.89
2022-09-15T03:45:15.149Z,12.88
2022-09-15T03:46:02.452Z,12.86
2022-09-15T03:46:49.075Z,12.88
2022-09-15T03:47:35.543Z,12.87
2022-09-15T03:48:23.354Z,12.89
2022-09-15T03:49:09.757Z,12.87
2022-09-15T03:49:56.204Z,12.88
2022-09-15T03:50:42.977Z,12.85
2022-09-15T03:51:29.728Z,12.83
2022-09-15T03:52:16.204Z,12.83
2022-09-15T03:53:03.317Z,12.83
2022-09-15T03:53:49.811Z,12.88
2022-09-15T03:54:36.413Z,12.84
2022-09-15T03:55:22.870Z,12.79
2022-09-15T03:56:17.048Z,12.84
2022-09-15T03:57:04.094Z,12.84
2022-09-15T03:57:50.540Z,12.85
2022-09-15T03:58:38.529Z,12.86
2022-09-15T03:59:24.960Z,12.80
2022-09-15T04:00:12.082Z,12.78
2022-09-15T04:00:59.062Z,12.77
2022-09-15T04:01:46.572Z,12.74
2022-09-15T04:02:33.098Z,12.73
2022-09-15T04:03:19.545Z,12.74
2022-09-15T04:04:06.795Z,12.76
2022-09-15T04:04:53.267Z,12.74
2022-09-15T04:05:40.578Z,12.72
2022-09-15T04:06:27.495Z,12.71
2022-09-15T04:07:13.993Z,12.72
2022-09-15T04:08:01.255Z,12.68
2022-09-15T04:08:49.512Z,12.74
2022-09-15T04:09:37.237Z,12.67
2022-09-15T04:10:24.413Z,12.70
2022-09-15T04:11:13.850Z,12.71
2022-09-15T04:12:00.573Z,12.73
2022-09-15T04:12:48.219Z,12.69
2022-09-15T04:13:36.188Z,12.66
2022-09-15T04:14:22.610Z,12.68
2022-09-15T04:15:09.630Z,12.69
2022-09-15T04:16:04.671Z,12.64
2022-09-15T04:16:51.237Z,12.62
2022-09-15T04:17:37.646Z,12.60
2022-09-15T04:18:24.194Z,12.61
2022-09-15T04:19:11.277Z,12.60
2022-09-15T04:19:58.215Z,12.60
2022-09-15T04:20:44.671Z,12.59
2022-09-15T04:21:32.222Z,12.60
2022-09-15T04:22:19.335Z,12.60
2022-09-15T04:23:06.199Z,12.60
2022-09-15T04:23:54.053Z,12.62
2022-09-15T04:24:41.451Z,12.56
2022-09-15T04:25:27.954Z,12.55
2022-09-15T04:26:22.498Z,12.56
2022-09-15T04:27:09.037Z,12.57
2022-09-15T04:27:57.124Z,12.57
2022-09-15T04:28:43.593Z,12.58
2022-09-15T04:29:30.052Z,12.59
2022-09-15T04:30:16.679Z,12.59
2022-09-15T04:31:11.016Z,12.57
2022-09-15T04:31:58.187Z,12.56
2022-09-15T04:32:44.709Z,12.60
2022-09-15T04:33:32.262Z,12.55
2022-09-15T04:34:18.775Z,12.52
2022-09-15T04:35:05.792Z,12.54
2022-09-15T04:35:58.853Z,12.57
2022-09-15T04:36:47.572Z,12.61
2022-09-15T04:37:34.212Z,12.66
2022-09-15T04:38:20.636Z,12.69
2022-09-15T04:39:07.235Z,12.69
2022-09-15T04:39:53.899Z,12.70
2022-09-15T04:40:40.315Z,12.71
2022-09-15T04:41:27.803Z,12.73
2022-09-15T04:42:15.305Z,12.75
2022-09-15T04:43:01.712Z,12.77
2022-09-15T04:43:48.630Z,12.79
2022-09-15T04:44:35.281Z,12.78
2022-09-15T04:45:21.694Z,12.78
2022-09-15T04:46:08.277Z,12.81
2022-09-15T04:46:54.939Z,12.85
2022-09-15T04:47:41.728Z,12.84
2022-09-15T04:48:31.637Z,12.76
2022-09-15T04:49:18.044Z,12.78
2022-09-15T04:50:04.847Z,12.78
2022-09-15T04:50:52.176Z,12.79
2022-09-15T04:51:38.788Z,12.82
2022-09-15T04:52:25.239Z,12.83
2022-09-15T04:53:11.665Z,12.87
2022-09-15T04:53:58.623Z,12.82
2022-09-15T04:54:45.529Z,12.83
2022-09-15T04:55:33.445Z,12.88
2022-09-15T04:56:23.375Z,12.91
2022-09-15T04:57:10.098Z,12.95
2022-09-15T04:57:57.859Z,12.97
2022-09-15T04:58:52.198Z,13.00
2022-09-15T04:59:38.757Z,13.04
2022-09-15T05:00:26.412Z,13.04
2022-09-15T05:01:15.497Z,13.05
2022-09-15T05:02:02.276Z,13.02
2022-09-15T05:02:48.749Z,13.02
2022-09-15T05:03:38.311Z,13.00
2022-09-15T05:04:24.792Z,12.97
2022-09-15T05:05:11.250Z,13.03
2022-09-15T05:05:57.705Z,13.06
2022-09-15T05:06:44.168Z,13.12
2022-09-15T05:07:30.603Z,13.13
2022-09-15T05:08:18.338Z,13.14
2022-09-15T05:09:10.198Z,13.15
2022-09-15T05:09:57.127Z,13.17
2022-09-15T05:10:43.582Z,13.17
2022-09-15T05:11:30.998Z,13.22
2022-09-15T05:12:17.469Z,13.22
2022-09-15T05:13:03.933Z,13.22
2022-09-15T05:13:50.955Z,13.21
2022-09-15T05:14:37.387Z,13.22
2022-09-15T05:15:24.140Z,13.25
2022-09-15T05:16:14.231Z,13.27
2022-09-15T05:17:00.950Z,13.31
2022-09-15T05:17:47.537Z,13.37
2022-09-15T05:18:34.999Z,13.39
2022-09-15T05:19:21.625Z,13.35
2022-09-15T05:20:08.409Z,13.38
2022-09-15T05:20:59.744Z,13.40
2022-09-15T05:21:46.422Z,13.39
2022-09-15T05:22:32.842Z,13.34
2022-09-15T05:23:19.267Z,13.32
2022-09-15T05:24:05.942Z,13.45
2022-09-15T05:24:52.461Z,13.45
2022-09-15T05:25:40.057Z,13.51
2022-09-15T05:26:29.876Z,13.54
2022-09-15T05:27:16.795Z,13.52
2022-09-15T05:28:03.217Z,13.52
2022-09-15T05:28:50.185Z,13.51
2022-09-15T05:29:36.565Z,13.55
2022-09-15T05:30:37.714Z,13.54
2022-09-15T05:31:31.485Z,13.57
2022-09-15T05:32:18.005Z,13.60
2022-09-15T05:33:05.518Z,13.64
2022-09-15T05:33:53.000Z,13.66
2022-09-15T05:34:39.389Z,13.67
2022-09-15T05:35:25.818Z,13.59
2022-09-15T05:36:14.264Z,13.63
2022-09-15T05:37:01.041Z,13.64
2022-09-15T05:37:47.435Z,13.66
2022-09-15T05:38:34.406Z,13.62
2022-09-15T05:39:20.817Z,13.57
2022-09-15T05:40:10.313Z,13.60
2022-09-15T05:41:23.641Z,13.64
2022-09-15T05:42:10.245Z,13.68
2022-09-15T05:42:57.434Z,13.70
2022-09-15T05:43:46.021Z,13.74
2022-09-15T05:44:32.553Z,13.75
2022-09-15T05:45:18.987Z,13.74
2022-09-15T05:46:07.564Z,13.70
2022-09-15T05:46:54.315Z,13.75
2022-09-15T05:47:41.017Z,13.73
2022-09-15T05:48:28.796Z,13.75
2022-09-15T05:49:15.565Z,13.77
2022-09-15T05:50:02.041Z,13.80
2022-09-15T05:50:53.648Z,13.76
2022-09-15T05:51:40.396Z,13.82
2022-09-15T05:52:26.938Z,13.90
2022-09-15T05:53:13.336Z,13.89
2022-09-15T05:54:00.207Z,13.90
2022-09-15T05:54:46.586Z,13.94
2022-09-15T05:55:37.982Z,13.99
2022-09-15T05:56:24.525Z,14.00
2022-09-15T05:57:10.915Z,14.00
2022-09-15T05:57:57.455Z,14.01
2022-09-15T05:58:46.746Z,13.97
2022-09-15T05:59:35.924Z,14.06
2022-09-15T06:00:23.284Z,14.07
2022-09-15T06:01:19.663Z,14.13
2022-09-15T06:02:06.366Z,14.07
2022-09-15T06:02:53.872Z,14.13
2022-09-15T06:03:40.645Z,14.17
2022-09-15T06:04:28.487Z,14.21
2022-09-15T06:05:14.886Z,14.28
2022-09-15T06:06:03.442Z,14.33
2022-09-15T06:06:49.886Z,14.34
2022-09-15T06:07:36.374Z,14.34
2022-09-15T06:08:22.799Z,14.36
2022-09-15T06:09:09.547Z,14.36
2022-09-15T06:09:56.178Z,14.36
2022-09-15T06:10:42.672Z,14.28
2022-09-15T06:11:33.710Z,14.35
2022-09-15T06:12:20.336Z,14.34
2022-09-15T06:13:07.041Z,14.33
2022-09-15T06:13:54.461Z,14.32
2022-09-15T06:14:44.296Z,14.36
2022-09-15T06:15:31.909Z,14.39
2022-09-15T06:16:21.659Z,14.37
2022-09-15T06:17:08.483Z,14.38
2022-09-15T06:17:54.920Z,14.26
2022-09-15T06:18:42.117Z,14.31
2022-09-15T06:19:28.677Z,14.35
2022-09-15T06:20:15.420Z,14.39
2022-09-15T06:21:10.560Z,14.45
2022-09-15T06:21:56.961Z,14.50
2022-09-15T06:22:43.362Z,14.52
2022-09-15T06:23:30.035Z,14.48
2022-09-15T06:24:16.535Z,14.48
2022-09-15T06:25:03.082Z,14.61
2022-09-15T06:25:49.522Z,14.55
2022-09-15T06:26:35.988Z,14.52
2022-09-15T06:27:22.572Z,14.47
2022-09-15T06:28:09.494Z,14.53
2022-09-15T06:29:01.467Z,14.54
2022-09-15T06:29:48.664Z,14.59
2022-09-15T06:30:35.429Z,14.58
2022-09-15T06:31:23.095Z,14.58
2022-09-15T06:32:09.765Z,14.72
2022-09-15T06:32:56.385Z,14.76
2022-09-15T06:33:48.234Z,14.71
2022-09-15T06:34:34.818Z,14.67
2022-09-15T06:35:21.302Z,14.68
2022-09-15T06:36:08.206Z,14.74
2022-09-15T06:36:54.661Z,14.81
2022-09-15T06:37:41.045Z,14.81
2022-09-15T06:38:27.471Z,14.81
2022-09-15T06:39:14.124Z,14.82
2022-09-15T06:40:01.769Z,14.86
2022-09-15T06:40:56.337Z,14.87
2022-09-15T06:42:01.419Z,14.92
2022-09-15T06:42:49.033Z,15.06
2022-09-15T06:43:36.212Z,15.07
2022-09-15T06:44:22.659Z,15.05
2022-09-15T06:45:09.505Z,14.99
2022-09-15T06:46:04.151Z,15.17
2022-09-15T06:46:50.895Z,15.22
2022-09-15T06:47:37.288Z,15.22
2022-09-15T06:48:25.124Z,15.25
2022-09-15T06:49:12.122Z,15.25
2022-09-15T06:49:59.662Z,15.16
2022-09-15T06:50:53.886Z,15.36
2022-09-15T06:51:40.665Z,15.40
2022-09-15T06:52:27.797Z,15.37
2022-09-15T06:53:14.273Z,15.45
2022-09-15T06:54:02.734Z,15.51
2022-09-15T06:54:50.132Z,15.58
2022-09-15T06:55:36.602Z,15.64
2022-09-15T06:56:23.945Z,15.71
2022-09-15T06:57:10.509Z,15.62
2022-09-15T06:57:56.919Z,15.59
2022-09-15T06:58:44.906Z,15.56
2022-09-15T06:59:31.636Z,15.66
2022-09-15T07:00:20.098Z,15.65
2022-09-15T07:01:10.101Z,15.77
2022-09-15T07:01:57.525Z,15.83
2022-09-15T07:02:49.228Z,15.88
2022-09-15T07:03:37.541Z,15.98
2022-09-15T07:04:24.152Z,16.05
2022-09-15T07:05:10.974Z,16.19
2022-09-15T07:05:59.361Z,16.18
2022-09-15T07:06:46.047Z,16.19
2022-09-15T07:07:32.465Z,16.27
2022-09-15T07:08:18.931Z,16.13
2022-09-15T07:09:06.420Z,16.06
2022-09-15T07:09:52.991Z,15.94
2022-09-15T07:10:43.097Z,15.96
2022-09-15T07:11:30.832Z,16.16
2022-09-15T07:12:17.294Z,16.10
2022-09-15T07:13:03.859Z,16.20
2022-09-15T07:13:51.685Z,16.18
2022-09-15T07:14:38.197Z,16.20
2022-09-15T07:15:25.943Z,16.01
2022-09-15T07:16:14.532Z,15.95
2022-09-15T07:17:00.993Z,15.92
2022-09-15T07:17:47.391Z,15.87
2022-09-15T07:18:38.581Z,15.93
2022-09-15T07:19:27.920Z,15.90
2022-09-15T07:20:14.452Z,15.85
2022-09-15T07:21:04.852Z,15.80
2022-09-15T07:21:52.742Z,15.89
2022-09-15T07:22:39.169Z,15.90
2022-09-15T07:23:25.881Z,15.86
2022-09-15T07:24:12.993Z,15.95
2022-09-15T07:24:59.436Z,15.99
2022-09-15T07:25:45.978Z,16.01
2022-09-15T07:26:33.769Z,16.10
2022-09-15T07:27:22.528Z,15.94
2022-09-15T07:28:08.959Z,15.95
2022-09-15T07:29:01.654Z,16.06
2022-09-15T07:29:48.054Z,16.10
2022-09-15T07:30:35.355Z,16.11
2022-09-15T07:31:24.614Z,16.16
2022-09-15T07:32:11.100Z,16.29
2022-09-15T07:32:57.667Z,16.29
2022-09-15T07:33:44.943Z,16.38
2022-09-15T07:34:31.655Z,16.45
2022-09-15T07:35:18.636Z,16.45
2022-09-15T07:36:07.543Z,16.39
2022-09-15T07:36:53.970Z,16.49
2022-09-15T07:37:40.422Z,16.71
2022-09-15T07:38:27.105Z,16.81
2022-09-15T07:39:13.747Z,16.82
2022-09-15T07:40:00.351Z,16.74
2022-09-15T07:40:48.986Z,16.73
2022-09-15T07:41:35.528Z,16.67
2022-09-15T07:42:21.967Z,16.78
2022-09-15T07:43:08.525Z,16.87
2022-09-15T07:43:57.621Z,16.85
2022-09-15T07:44:44.433Z,16.93
2022-09-15T07:45:31.753Z,16.91
2022-09-15T07:46:20.104Z,17.00
2022-09-15T07:47:06.554Z,16.84
2022-09-15T07:47:52.979Z,16.79
2022-09-15T07:48:39.532Z,16.85
2022-09-15T07:49:26.446Z,16.81
2022-09-15T07:50:14.266Z,16.81
2022-09-15T07:51:00.790Z,17.02
2022-09-15T07:51:47.174Z,17.08
2022-09-15T07:52:33.669Z,17.08
2022-09-15T07:53:20.998Z,17.16
2022-09-15T07:54:07.491Z,17.20
2022-09-15T07:54:54.028Z,17.27
2022-09-15T07:55:40.584Z,17.16
2022-09-15T07:56:27.324Z,17.17
2022-09-15T07:57:14.138Z,17.02
2022-09-15T07:58:01.145Z,16.83
2022-09-15T07:58:49.032Z,16.84
2022-09-15T07:59:39.330Z,16.95
2022-09-15T08:00:27.975Z,16.81
2022-09-15T08:01:16.226Z,16.66
2022-09-15T08:02:02.788Z,16.84
2022-09-15T08:02:49.495Z,16.92
2022-09-15T08:03:39.402Z,16.86
2022-09-15T08:04:25.909Z,16.85
2022-09-15T08:05:12.341Z,16.65
2022-09-15T08:06:00.274Z,16.62
2022-09-15T08:06:46.675Z,16.61
2022-09-15T08:07:33.160Z,16.54
2022-09-15T08:08:19.639Z,16.58
2022-09-15T08:09:06.284Z,16.57
2022-09-15T08:09:52.810Z,16.64
2022-09-15T08:10:41.672Z,16.81
2022-09-15T08:11:28.862Z,16.77
2022-09-15T08:12:15.509Z,16.85
2022-09-15T08:13:01.901Z,16.95
2022-09-15T08:13:50.345Z,17.00
2022-09-15T08:14:37.010Z,17.05
2022-09-15T08:15:23.737Z,17.03
2022-09-15T08:16:15.972Z,17.10
2022-09-15T08:17:08.134Z,17.13
2022-09-15T08:17:57.177Z,17.24
2022-09-15T08:18:44.627Z,17.43
2022-09-15T08:19:33.420Z,17.56
2022-09-15T08:20:20.637Z,17.57
2022-09-15T08:21:10.732Z,17.70
2022-09-15T08:21:57.295Z,17.74
2022-09-15T08:22:45.500Z,17.91
2022-09-15T08:23:32.439Z,17.93
2022-09-15T08:24:19.252Z,18.03
2022-09-15T08:25:06.718Z,17.97
2022-09-15T08:25:53.231Z,17.82
2022-09-15T08:26:39.971Z,17.92
2022-09-15T08:27:26.399Z,17.96
2022-09-15T08:28:12.851Z,18.02
2022-09-15T08:28:59.311Z,18.14
2022-09-15T08:29:45.874Z,18.18
2022-09-15T08:30:32.803Z,17.94
2022-09-15T08:31:19.576Z,18.15
2022-09-15T08:32:06.100Z,18.01
2022-09-15T08:32:53.189Z,18.02
2022-09-15T08:33:45.440Z,17.96
2022-09-15T08:34:32.282Z,17.73
2022-09-15T08:35:19.690Z,17.88
2022-09-15T08:36:12.292Z,18.00
2022-09-15T08:36:58.771Z,18.04
2022-09-15T08:37:47.123Z,18.13
2022-09-15T08:38:34.515Z,17.97
2022-09-15T08:39:20.972Z,17.91
2022-09-15T08:40:16.746Z,17.77
2022-09-15T08:41:07.558Z,17.79
2022-09-15T08:41:55.809Z,17.68
2022-09-15T08:42:46.491Z,17.72
2022-09-15T08:43:43.971Z,17.72
2022-09-15T08:44:43.774Z,17.82
2022-09-15T08:45:47.740Z,17.81
2022-09-15T08:46:47.748Z,17.80
2022-09-15T08:47:40.689Z,17.99
2022-09-15T08:48:34.252Z,17.96
2022-09-15T08:49:47.544Z,18.05
2022-09-15T08:50:41.688Z,17.97
2022-09-15T08:51:41.595Z,17.98
2022-09-15T08:52:41.470Z,17.92
2022-09-15T08:53:38.398Z,17.65
2022-09-15T08:54:29.151Z,17.68
2022-09-15T08:55:37.658Z,17.67
2022-09-15T08:56:24.301Z,17.42
2022-09-15T08:57:18.975Z,17.42
2022-09-15T08:58:06.284Z,17.45
2022-09-15T08:58:53.021Z,17.42
2022-09-15T08:59:40.015Z,17.45
2022-09-15T09:00:27.237Z,17.47
2022-09-15T09:01:19.744Z,17.72
2022-09-15T09:02:12.236Z,17.64
2022-09-15T09:03:44.997Z,17.84
2022-09-15T09:04:47.612Z,18.04
2022-09-15T09:05:49.687Z,18.32
2022-09-15T09:06:43.248Z,18.33
2022-09-15T09:08:22.780Z,18.39
2022-09-15T09:09:09.379Z,18.36
2022-09-15T09:10:24.682Z,18.42
2022-09-15T09:11:34.872Z,18.42
2022-09-15T09:13:05.689Z,18.71
2022-09-15T09:14:17.649Z,18.75
2022-09-15T09:15:39.523Z,18.75
2022-09-15T09:17:05.437Z,18.46
2022-09-15T09:18:20.992Z,18.30
2022-09-15T09:19:35.758Z,18.19
2022-09-15T09:20:29.252Z,18.22
2022-09-15T09:21:27.608Z,18.09
2022-09-15T09:22:19.875Z,18.03
2022-09-15T09:23:15.871Z,17.96
2022-09-15T09:24:25.427Z,18.15
2022-09-15T09:25:27.070Z,18.11
2022-09-15T09:26:14.584Z,18.09
2022-09-15T09:27:01.098Z,18.12
2022-09-15T09:27:49.099Z,18.24
2022-09-15T09:28:46.219Z,18.16
2022-09-15T09:29:44.688Z,18.07
2022-09-15T09:30:36.109Z,18.33
2022-09-15T09:31:25.679Z,18.43
2022-09-15T09:32:21.968Z,18.45
2022-09-15T09:33:34.339Z,18.53
2022-09-15T09:34:54.161Z,18.75
2022-09-15T09:35:40.556Z,18.94
2022-09-15T09:36:27.045Z,19.04
2022-09-15T09:37:15.671Z,18.97
2022-09-15T09:38:02.522Z,18.98
2022-09-15T09:38:50.612Z,19.16
2022-09-15T09:39:37.561Z,18.89
2022-09-15T09:40:24.112Z,18.93
2022-09-15T09:41:22.150Z,18.98
2022-09-15T09:42:19.487Z,19.16
2022-09-15T09:43:05.910Z,19.42
2022-09-15T09:43:55.647Z,19.59
2022-09-15T09:44:43.876Z,19.65
2022-09-15T09:45:30.288Z,19.62
2022-09-15T09:46:19.133Z,19.60
2022-09-15T09:47:05.692Z,19.36
2022-09-15T09:47:52.911Z,19.46
2022-09-15T09:48:45.144Z,19.35
2022-09-15T09:49:39.224Z,19.43
2022-09-15T09:50:44.360Z,19.41
2022-09-15T09:51:40.340Z,19.20
2022-09-15T09:52:35.863Z,19.07
2022-09-15T09:53:31.530Z,18.94
2022-09-15T09:54:20.629Z,18.92
2022-09-15T09:55:23.230Z,19.00
2022-09-15T09:56:23.521Z,19.14
2022-09-15T09:57:12.734Z,19.38
2022-09-15T09:58:20.640Z,19.32
2022-09-15T09:59:38.434Z,19.11
2022-09-15T10:00:34.829Z,19.00
2022-09-15T10:01:30.172Z,19.09
2022-09-15T10:02:20.536Z,19.11
2022-09-15T10:03:19.786Z,19.11
2022-09-15T10:04:19.118Z,19.09
2022-09-15T10:05:06.739Z,19.14
2022-09-15T10:06:14.493Z,19.09
2022-09-15T10:07:01.058Z,19.02
2022-09-15T10:07:47.529Z,18.98
2022-09-15T10:08:36.872Z,19.05
2022-09-15T10:09:23.444Z,19.15
2022-09-15T10:10:23.733Z,19.20
2022-09-15T10:11:10.496Z,19.13
2022-09-15T10:12:04.272Z,19.10
2022-09-15T10:12:56.379Z,19.14
2022-09-15T10:13:52.758Z,19.11
2022-09-15T10:14:45.395Z,19.32
2022-09-15T10:15:35.713Z,19.39
2022-09-15T10:16:22.957Z,19.26
2022-09-15T10:17:14.963Z,19.37
2022-09-15T10:18:01.918Z,19.51
2022-09-15T10:18:54.368Z,19.46
2022-09-15T10:19:49.634Z,19.65
2022-09-15T10:20:49.992Z,19.65
2022-09-15T10:21:39.713Z,19.62
2022-09-15T10:22:37.106Z,19.71
2022-09-15T10:23:27.271Z,19.94
2022-09-15T10:24:40.995Z,20.26
2022-09-15T10:25:39.544Z,20.45
2022-09-15T10:26:34.339Z,20.34
2022-09-15T10:27:28.613Z,20.32
2022-09-15T10:28:22.969Z,20.41
2022-09-15T10:29:13.934Z,20.32
2022-09-15T10:30:12.833Z,20.46
2022-09-15T10:31:13.186Z,20.23
2022-09-15T10:32:38.927Z,20.00
2022-09-15T10:33:28.943Z,20.22
2022-09-15T10:34:24.202Z,19.90
2022-09-15T10:35:18.586Z,19.82
2022-09-15T10:36:18.746Z,19.73
2022-09-15T10:37:18.722Z,19.69
2022-09-15T10:38:21.774Z,19.44
2022-09-15T10:39:43.849Z,19.63
2022-09-15T10:40:58.529Z,19.77
2022-09-15T10:42:07.621Z,19.93
2022-09-15T10:43:03.615Z,20.05
2022-09-15T10:44:27.767Z,20.28
2022-09-15T10:45:26.208Z,20.21
2022-09-15T10:46:18.939Z,20.28
2022-09-15T10:47:20.495Z,20.49
2022-09-15T10:48:29.282Z,20.36
2022-09-15T10:49:53.005Z,19.85
2022-09-15T10:51:19.563Z,19.87
2022-09-15T10:52:22.307Z,19.81
2022-09-15T10:53:42.366Z,20.04
2022-09-15T10:54:53.663Z,20.01
2022-09-15T10:55:53.527Z,20.11
2022-09-15T10:56:48.865Z,20.37
2022-09-15T10:57:48.831Z,20.50
2022-09-15T10:58:52.009Z,20.49
2022-09-15T10:59:53.452Z,20.49